createdAt,value
2018-09-12T00:00:16.356Z,73.1
2018-09-12T00:01:16.432Z,73.3
2018-09-12T00:02:16.702Z,73.5
2018-09-12T00:03:16.969Z,73.7
2018-09-12T00:04:17.240Z,73.7
2018-09-12T00:05:16.484Z,73.8
2018-09-12T00:06:16.753Z,73.6
2018-09-12T00:07:17.026Z,73.6
2018-09-12T00:08:16.305Z,73.9
2018-09-12T00:09:16.573Z,73.7
2018-09-12T00:10:16.854Z,74.1
2018-09-12T00:11:16.908Z,73.8
2018-09-12T00:12:17.551Z,74.2
2018-09-12T00:13:16.819Z,74.3
2018-09-12T00:14:17.085Z,74.1
2018-09-12T00:15:16.385Z,74.2
2018-09-12T00:16:16.649Z,74.3
2018-09-12T00:17:16.931Z,74.4
2018-09-12T00:18:17.199Z,74.6
2018-09-12T00:19:16.469Z,74.8
2018-09-12T00:20:16.741Z,74.8
2018-09-12T00:21:16.881Z,75.2
2018-09-12T00:22:17.236Z,75.3
2018-09-12T00:23:16.506Z,74.9
2018-09-12T00:24:16.772Z,75.3
2018-09-12T00:25:17.056Z,75.4
2018-09-12T00:26:16.324Z,75.4
2018-09-12T00:27:16.600Z,75.3
2018-09-12T00:28:16.887Z,75.3
2018-09-12T00:29:17.155Z,75.3
2018-09-12T00:30:16.444Z,75.3
2018-09-12T00:31:16.468Z,75.3
2018-09-12T00:32:16.742Z,75.5
2018-09-12T00:33:17.009Z,75.7
2018-09-12T00:34:16.284Z,75.8
2018-09-12T00:35:16.559Z,76.1
2018-09-12T00:36:16.822Z,76.2
2018-09-12T00:37:17.430Z,76.2
2018-09-12T00:38:16.702Z,76.0
2018-09-12T00:39:16.972Z,75.8
2018-09-12T00:40:17.248Z,76.2
2018-09-12T00:41:16.288Z,75.9
2018-09-12T00:42:16.553Z,76.0
2018-09-12T00:43:16.837Z,75.8
2018-09-12T00:44:17.105Z,76.0
2018-09-12T00:45:16.394Z,76.3
2018-09-12T00:46:16.664Z,76.3
2018-09-12T00:47:16.927Z,76.5
2018-09-12T00:48:17.199Z,76.8
2018-09-12T00:49:16.477Z,76.4
2018-09-12T00:50:16.746Z,76.7
2018-09-12T00:51:16.789Z,77.1
2018-09-12T00:52:17.050Z,77.0
2018-09-12T00:53:16.329Z,76.9
2018-09-12T00:54:16.605Z,76.7
2018-09-12T00:55:16.883Z,76.7
2018-09-12T00:56:17.152Z,76.5
2018-09-12T00:57:16.416Z,76.2
2018-09-12T00:58:16.685Z,76.5
2018-09-12T00:59:16.957Z,76.5
2018-09-12T01:00:17.255Z,76.7
2018-09-12T01:01:16.299Z,76.8
2018-09-12T01:02:16.571Z,76.8
2018-09-12T01:03:16.850Z,76.9
2018-09-12T01:04:17.116Z,77.0
2018-09-12T01:05:16.385Z,77.0
2018-09-12T01:06:16.663Z,77.3
2018-09-12T01:07:16.937Z,77.0
2018-09-12T01:08:17.200Z,77.5
2018-09-12T01:09:16.470Z,77.7
2018-09-12T01:10:16.761Z,77.5
2018-09-12T01:11:16.805Z,77.5
2018-09-12T01:12:17.078Z,77.3
2018-09-12T01:13:16.351Z,77.3
2018-09-12T01:14:16.630Z,77.1
2018-09-12T01:15:16.909Z,76.6
2018-09-12T01:16:17.189Z,76.6
2018-09-12T01:17:16.465Z,76.8
2018-09-12T01:18:16.738Z,77.2
2018-09-12T01:19:17.016Z,77.5
2018-09-12T01:20:16.282Z,77.0
2018-09-12T01:21:16.363Z,77.1
2018-09-12T01:22:16.639Z,77.2
2018-09-12T01:23:16.901Z,76.8
2018-09-12T01:24:17.168Z,77.1
2018-09-12T01:25:16.464Z,77.1
2018-09-12T01:26:16.743Z,77.1
2018-09-12T01:27:17.022Z,77.3
2018-09-12T01:28:16.295Z,77.5
2018-09-12T01:29:16.568Z,77.5
2018-09-12T01:30:16.843Z,77.7
2018-09-12T01:31:16.894Z,77.7
2018-09-12T01:32:17.162Z,78.0
2018-09-12T01:33:16.426Z,78.1
2018-09-12T01:34:16.697Z,78.2
2018-09-12T01:35:16.963Z,78.3
2018-09-12T01:36:17.221Z,78.4
2018-09-12T01:37:16.505Z,78.4
2018-09-12T01:38:17.094Z,78.7
2018-09-12T01:39:16.384Z,78.6
2018-09-12T01:40:16.673Z,78.8
2018-09-12T01:41:16.687Z,78.8
2018-09-12T01:42:16.963Z,79.0
2018-09-12T01:43:17.238Z,78.8
2018-09-12T01:44:16.512Z,78.9
2018-09-12T01:45:16.785Z,78.9
2018-09-12T01:46:17.070Z,79.1
2018-09-12T01:47:16.341Z,79.0
2018-09-12T01:48:16.613Z,78.8
2018-09-12T01:49:16.890Z,78.2
2018-09-12T01:50:17.164Z,78.7
2018-09-12T01:51:17.202Z,78.6
2018-09-12T01:52:16.469Z,78.8
2018-09-12T01:53:16.744Z,78.9
2018-09-12T01:54:17.015Z,79.1
2018-09-12T01:55:16.286Z,79.2
2018-09-12T01:56:16.546Z,79.3
2018-09-12T01:57:16.820Z,79.4
2018-09-12T01:58:17.093Z,79.1
2018-09-12T01:59:16.363Z,79.0
2018-09-12T02:00:16.662Z,79.3
2018-09-12T02:01:16.684Z,79.2
2018-09-12T02:02:16.945Z,79.4
2018-09-12T02:03:17.213Z,79.6
2018-09-12T02:04:16.485Z,79.7
2018-09-12T02:05:16.781Z,79.7
2018-09-12T02:06:17.056Z,79.4
2018-09-12T02:07:16.325Z,79.5
2018-09-12T02:08:16.597Z,79.7
2018-09-12T02:09:16.875Z,79.7
2018-09-12T02:10:17.147Z,79.7
2018-09-12T02:11:17.174Z,79.3
2018-09-12T02:12:16.359Z,79.1
2018-09-12T02:13:16.620Z,79.4
2018-09-12T02:14:16.899Z,79.4
2018-09-12T02:15:17.179Z,79.3
2018-09-12T02:16:16.452Z,79.7
2018-09-12T02:17:16.732Z,79.6
2018-09-12T02:18:17.002Z,79.6
2018-09-12T02:19:16.273Z,79.6
2018-09-12T02:20:16.553Z,79.5
2018-09-12T02:21:16.603Z,79.5
2018-09-12T02:22:16.870Z,79.4
2018-09-12T02:23:17.426Z,79.4
2018-09-12T02:24:16.696Z,79.5
2018-09-12T02:25:16.982Z,80.0
2018-09-12T02:26:17.246Z,80.0
2018-09-12T02:27:16.510Z,80.0
2018-09-12T02:28:16.786Z,80.2
2018-09-12T02:29:17.058Z,80.3
2018-09-12T02:30:16.340Z,80.4
2018-09-12T02:31:16.385Z,80.5
2018-09-12T02:32:16.650Z,80.5
2018-09-12T02:33:16.919Z,80.3
2018-09-12T02:34:17.189Z,80.4
2018-09-12T02:35:16.465Z,80.5
2018-09-12T02:36:16.733Z,80.7
2018-09-12T02:37:16.998Z,80.5
2018-09-12T02:38:16.264Z,80.4
2018-09-12T02:39:16.550Z,80.6
2018-09-12T02:40:16.832Z,80.5
2018-09-12T02:41:16.864Z,79.8
2018-09-12T02:42:17.134Z,79.8
2018-09-12T02:43:16.406Z,79.8
2018-09-12T02:44:16.680Z,80.1
2018-09-12T02:45:16.951Z,80.0
2018-09-12T02:46:17.215Z,80.1
2018-09-12T02:47:16.492Z,80.5
2018-09-12T02:48:16.759Z,80.5
2018-09-12T02:49:17.032Z,80.5
2018-09-12T02:50:16.298Z,80.7
2018-09-12T02:51:16.356Z,80.7
2018-09-12T02:52:16.629Z,80.6
2018-09-12T02:53:16.913Z,80.6
2018-09-12T02:54:17.183Z,80.5
2018-09-12T02:55:16.446Z,80.7
2018-09-12T02:56:16.713Z,80.8
2018-09-12T02:57:16.986Z,80.8
2018-09-12T02:58:17.523Z,80.3
2018-09-12T02:59:16.788Z,80.3
2018-09-12T03:00:17.082Z,80.3
2018-09-12T03:01:17.118Z,80.9
2018-09-12T03:02:16.388Z,80.9
2018-09-12T03:03:16.658Z,80.9
2018-09-12T03:04:16.937Z,81.1
2018-09-12T03:05:17.233Z,81.2
2018-09-12T03:06:16.502Z,81.2
2018-09-12T03:07:16.772Z,81.3
2018-09-12T03:08:17.056Z,81.3
2018-09-12T03:09:16.326Z,81.3
2018-09-12T03:10:16.633Z,81.4
2018-09-12T03:11:16.648Z,80.8
2018-09-12T03:12:16.915Z,81.1
2018-09-12T03:13:17.447Z,80.9
2018-09-12T03:14:16.723Z,81.2
2018-09-12T03:15:16.987Z,81.2
2018-09-12T03:16:17.269Z,81.3
2018-09-12T03:17:16.540Z,81.3
2018-09-12T03:18:16.820Z,81.2
2018-09-12T03:19:17.100Z,81.6
2018-09-12T03:20:16.381Z,81.7
2018-09-12T03:21:16.451Z,81.9
2018-09-12T03:22:16.725Z,82.2
2018-09-12T03:23:16.991Z,82.3
2018-09-12T03:24:16.279Z,82.1
2018-09-12T03:25:16.561Z,82.1
2018-09-12T03:26:16.828Z,82.0
2018-09-12T03:27:17.095Z,82.1
2018-09-12T03:28:16.373Z,82.4
2018-09-12T03:29:16.993Z,82.5
2018-09-12T03:30:16.305Z,82.5
2018-09-12T03:31:16.331Z,82.2
2018-09-12T03:32:16.608Z,82.2
2018-09-12T03:33:16.895Z,82.3
2018-09-12T03:34:17.182Z,82.1
2018-09-12T03:35:16.467Z,82.2
2018-09-12T03:36:16.733Z,82.2
2018-09-12T03:37:17.009Z,82.4
2018-09-12T03:38:16.281Z,82.5
2018-09-12T03:39:16.567Z,82.7
2018-09-12T03:40:16.852Z,82.7
2018-09-12T03:41:16.881Z,82.3
2018-09-12T03:42:17.147Z,82.3
2018-09-12T03:43:16.422Z,82.2
2018-09-12T03:44:16.689Z,82.2
2018-09-12T03:45:16.966Z,82.3
2018-09-12T03:46:17.240Z,82.3
2018-09-12T03:47:16.518Z,82.4
2018-09-12T03:48:16.813Z,82.4
2018-09-12T03:49:17.078Z,82.5
2018-09-12T03:50:16.379Z,82.8
2018-09-12T03:51:16.409Z,82.6
2018-09-12T03:52:16.684Z,82.5
2018-09-12T03:53:16.957Z,82.8
2018-09-12T03:54:17.416Z,82.8
2018-09-12T03:55:16.695Z,82.9
2018-09-12T03:56:16.969Z,83.0
2018-09-12T03:57:17.236Z,83.0
2018-09-12T03:58:16.508Z,82.9
2018-09-12T03:59:16.793Z,82.9
2018-09-12T04:00:17.077Z,83.0
2018-09-12T04:01:17.123Z,82.9
2018-09-12T04:02:16.403Z,83.1
2018-09-12T04:03:16.674Z,83.1
2018-09-12T04:04:16.962Z,83.2
2018-09-12T04:05:17.551Z,83.2
2018-09-12T04:06:16.826Z,83.2
2018-09-12T04:07:17.087Z,83.2
2018-09-12T04:08:16.361Z,83.3
2018-09-12T04:09:16.627Z,83.2
2018-09-12T04:10:16.906Z,83.3
2018-09-12T04:11:16.952Z,83.5
2018-09-12T04:12:17.245Z,83.5
2018-09-12T04:13:16.514Z,83.5
2018-09-12T04:14:16.795Z,83.7
2018-09-12T04:15:17.068Z,83.6
2018-09-12T04:16:16.328Z,83.4
2018-09-12T04:17:16.619Z,83.4
2018-09-12T04:18:16.892Z,83.5
2018-09-12T04:19:17.158Z,83.2
2018-09-12T04:20:16.462Z,83.2
2018-09-12T04:21:16.475Z,83.2
2018-09-12T04:22:16.743Z,83.3
2018-09-12T04:23:17.012Z,83.4
2018-09-12T04:24:16.403Z,83.5
2018-09-12T04:25:16.726Z,83.2
2018-09-12T04:26:17.021Z,83.2
2018-09-12T04:27:16.290Z,83.2
2018-09-12T04:28:16.566Z,83.2
2018-09-12T04:29:16.846Z,83.3
2018-09-12T04:30:17.144Z,83.2
2018-09-12T04:31:17.163Z,83.1
2018-09-12T04:32:16.440Z,83.0
2018-09-12T04:33:16.705Z,83.0
2018-09-12T04:34:16.977Z,82.8
2018-09-12T04:35:17.249Z,82.9
2018-09-12T04:36:16.515Z,83.0
2018-09-12T04:37:16.800Z,83.3
2018-09-12T04:38:17.060Z,83.2
2018-09-12T04:39:16.331Z,83.3
2018-09-12T04:40:16.601Z,83.0
2018-09-12T04:41:16.649Z,83.4
2018-09-12T04:42:16.919Z,83.4
2018-09-12T04:43:17.188Z,83.4
2018-09-12T04:44:16.465Z,83.4
2018-09-12T04:45:16.738Z,83.4
2018-09-12T04:46:17.003Z,83.3
2018-09-12T04:47:16.278Z,83.5
2018-09-12T04:48:16.645Z,83.6
2018-09-12T04:49:16.924Z,83.4
2018-09-12T04:50:16.419Z,83.2
2018-09-12T04:51:16.468Z,83.3
2018-09-12T04:52:16.741Z,83.3
2018-09-12T04:53:17.022Z,83.4
2018-09-12T04:54:16.295Z,83.4
2018-09-12T04:55:16.566Z,83.4
2018-09-12T04:56:16.835Z,83.2
2018-09-12T04:57:17.106Z,83.6
2018-09-12T04:58:16.390Z,83.6
2018-09-12T04:59:16.654Z,83.7
2018-09-12T05:00:16.956Z,83.7
2018-09-12T05:01:17.143Z,83.8
2018-09-12T05:02:16.416Z,83.8
2018-09-12T05:03:16.688Z,83.8
2018-09-12T05:04:16.973Z,83.7
2018-09-12T05:05:17.263Z,83.7
2018-09-12T05:06:16.528Z,83.7
2018-09-12T05:07:16.801Z,83.8
2018-09-12T05:08:17.068Z,83.8
2018-09-12T05:09:16.348Z,83.7
2018-09-12T05:10:16.892Z,83.6
2018-09-12T05:11:16.684Z,83.5
2018-09-12T05:12:16.959Z,83.5
2018-09-12T05:13:17.230Z,83.3
2018-09-12T05:14:16.499Z,83.3
2018-09-12T05:15:16.774Z,83.3
2018-09-12T05:16:17.045Z,83.2
2018-09-12T05:17:16.310Z,83.1
2018-09-12T05:18:16.598Z,82.9
2018-09-12T05:19:16.879Z,82.9
2018-09-12T05:20:17.174Z,82.8
2018-09-12T05:21:17.204Z,82.8
2018-09-12T05:22:16.472Z,82.8
2018-09-12T05:23:16.737Z,82.3
2018-09-12T05:24:17.021Z,82.5
2018-09-12T05:25:16.288Z,82.5
2018-09-12T05:26:16.556Z,82.3
2018-09-12T05:27:16.824Z,82.3
2018-09-12T05:28:17.090Z,82.1
2018-09-12T05:29:16.361Z,82.2
2018-09-12T05:30:16.641Z,82.3
2018-09-12T05:31:16.719Z,82.2
2018-09-12T05:32:16.995Z,82.3
2018-09-12T05:33:16.272Z,81.8
2018-09-12T05:34:16.552Z,81.8
2018-09-12T05:35:16.861Z,81.6
2018-09-12T05:36:17.235Z,81.8
2018-09-12T05:37:16.588Z,82.1
2018-09-12T05:38:16.893Z,82.0
2018-09-12T05:39:17.154Z,82.1
2018-09-12T05:40:16.429Z,81.9
2018-09-12T05:41:16.476Z,82.0
2018-09-12T05:42:16.746Z,82.3
2018-09-12T05:43:17.025Z,81.8
2018-09-12T05:44:16.287Z,82.3
2018-09-12T05:45:16.564Z,82.2
2018-09-12T05:46:16.831Z,81.7
2018-09-12T05:47:17.370Z,81.5
2018-09-12T05:48:16.630Z,81.5
2018-09-12T05:49:16.959Z,81.5
2018-09-12T05:50:17.716Z,81.1
2018-09-12T05:51:16.279Z,81.2
2018-09-12T05:52:16.560Z,81.1
2018-09-12T05:53:16.841Z,80.8
2018-09-12T05:54:17.114Z,80.6
2018-09-12T05:55:16.385Z,80.2
2018-09-12T05:56:16.678Z,80.0
2018-09-12T05:57:16.951Z,80.0
2018-09-12T05:58:17.217Z,79.7
2018-09-12T05:59:16.481Z,79.5
2018-09-12T06:00:16.758Z,78.9
2018-09-12T06:01:16.809Z,78.8
2018-09-12T06:02:17.110Z,78.6
2018-09-12T06:03:16.383Z,78.6
2018-09-12T06:04:16.649Z,78.4
2018-09-12T06:05:16.926Z,78.2
2018-09-12T06:06:17.293Z,77.8
2018-09-12T06:07:17.103Z,77.8
2018-09-12T06:08:16.493Z,78.0
2018-09-12T06:09:16.758Z,77.5
2018-09-12T06:10:17.046Z,77.3
2018-09-12T06:11:17.058Z,77.0
2018-09-12T06:12:16.330Z,76.8
2018-09-12T06:13:16.604Z,76.6
2018-09-12T06:14:17.006Z,76.3
2018-09-12T06:15:16.373Z,75.9
2018-09-12T06:16:16.645Z,75.9
2018-09-12T06:17:16.920Z,75.8
2018-09-12T06:18:17.201Z,75.5
2018-09-12T06:19:16.469Z,75.0
2018-09-12T06:20:16.748Z,75.2
2018-09-12T06:21:16.801Z,74.5
2018-09-12T06:22:17.080Z,74.7
2018-09-12T06:23:16.397Z,74.3
2018-09-12T06:24:16.674Z,74.4
2018-09-12T06:25:16.992Z,74.4
2018-09-12T06:26:16.258Z,74.1
2018-09-12T06:27:16.534Z,73.6
2018-09-12T06:28:16.811Z,73.5
2018-09-12T06:29:17.083Z,73.3
2018-09-12T06:30:16.357Z,72.8
2018-09-12T06:31:16.403Z,72.9
2018-09-12T06:32:16.682Z,72.8
2018-09-12T06:33:16.961Z,73.2
2018-09-12T06:34:17.234Z,72.9
2018-09-12T06:35:16.508Z,73.5
2018-09-12T06:36:16.775Z,72.8
2018-09-12T06:37:17.041Z,72.7
2018-09-12T06:38:16.377Z,72.2
2018-09-12T06:39:16.792Z,71.8
2018-09-12T06:40:17.098Z,71.8
2018-09-12T06:41:17.128Z,71.9
2018-09-12T06:42:16.400Z,71.7
2018-09-12T06:43:16.663Z,71.7
2018-09-12T06:44:16.942Z,71.2
2018-09-12T06:45:17.211Z,70.9
2018-09-12T06:46:16.477Z,70.8
2018-09-12T06:47:17.008Z,71.0
2018-09-12T06:48:16.275Z,70.7
2018-09-12T06:49:16.541Z,70.9
2018-09-12T06:50:16.812Z,70.8
2018-09-12T06:51:16.848Z,70.3
2018-09-12T06:52:17.145Z,70.2
2018-09-12T06:53:16.421Z,70.3
2018-09-12T06:54:16.696Z,70.3
2018-09-12T06:55:16.969Z,69.5
2018-09-12T06:56:17.233Z,69.0
2018-09-12T06:57:16.504Z,69.0
2018-09-12T06:58:16.781Z,68.7
2018-09-12T06:59:17.054Z,68.5
2018-09-12T07:00:16.369Z,68.7
2018-09-12T07:01:16.382Z,68.3
2018-09-12T07:02:16.656Z,68.0
2018-09-12T07:03:16.931Z,67.6
2018-09-12T07:04:17.213Z,66.7
2018-09-12T07:05:16.494Z,66.5
2018-09-12T07:06:16.765Z,65.8
2018-09-12T07:07:17.045Z,65.8
2018-09-12T07:08:16.318Z,65.2
2018-09-12T07:09:16.589Z,64.6
2018-09-12T07:10:16.883Z,65.2
2018-09-12T07:11:16.915Z,65.2
2018-09-12T07:12:17.191Z,64.2
2018-09-12T07:13:16.458Z,64.0
2018-09-12T07:14:17.034Z,63.1
2018-09-12T07:15:16.399Z,62.6
2018-09-12T07:16:16.669Z,62.4
2018-09-12T07:17:16.961Z,60.4
2018-09-12T07:18:17.245Z,59.6
2018-09-12T07:19:16.505Z,59.4
2018-09-12T07:20:16.781Z,59.0
2018-09-12T07:21:16.834Z,58.9
2018-09-12T07:22:17.105Z,58.0
2018-09-12T07:23:16.381Z,57.8
2018-09-12T07:24:16.748Z,57.4
2018-09-12T07:25:17.030Z,57.2
2018-09-12T07:26:16.300Z,56.6
2018-09-12T07:27:16.572Z,55.6
2018-09-12T07:28:16.850Z,56.0
2018-09-12T07:29:17.120Z,55.7
2018-09-12T07:30:16.418Z,55.5
2018-09-12T07:31:16.439Z,55.9
2018-09-12T07:32:16.709Z,55.2
2018-09-12T07:33:16.980Z,54.8
2018-09-12T07:34:17.251Z,54.5
2018-09-12T07:35:16.525Z,52.3
2018-09-12T07:36:16.814Z,52.6
2018-09-12T07:37:17.100Z,51.3
2018-09-12T07:38:16.369Z,51.7
2018-09-12T07:39:16.649Z,51.1
2018-09-12T07:40:16.926Z,50.8
2018-09-12T07:41:16.973Z,50.3
2018-09-12T07:42:17.231Z,50.6
2018-09-12T07:43:16.501Z,49.8
2018-09-12T07:44:16.769Z,49.2
2018-09-12T07:45:17.040Z,49.6
2018-09-12T07:46:16.312Z,48.6
2018-09-12T07:47:16.576Z,48.4
2018-09-12T07:48:16.843Z,49.0
2018-09-12T07:49:17.140Z,49.8
2018-09-12T07:50:16.421Z,48.9
2018-09-12T07:51:16.493Z,48.2
2018-09-12T07:52:16.765Z,48.8
2018-09-12T07:53:17.034Z,50.0
2018-09-12T07:54:16.317Z,49.9
2018-09-12T07:55:16.803Z,49.1
2018-09-12T07:56:17.395Z,48.1
2018-09-12T07:57:16.823Z,47.8
2018-09-12T07:58:17.097Z,47.4
2018-09-12T07:59:16.375Z,47.0
2018-09-12T08:00:17.126Z,47.0
2018-09-12T08:01:16.718Z,46.0
2018-09-12T08:02:16.992Z,46.0
2018-09-12T08:03:16.274Z,46.0
2018-09-12T08:04:16.544Z,45.4
2018-09-12T08:05:16.824Z,46.8
2018-09-12T08:06:17.095Z,46.8
2018-09-12T08:07:16.356Z,46.2
2018-09-12T08:08:16.627Z,46.4
2018-09-12T08:09:16.890Z,47.8
2018-09-12T08:10:17.187Z,48.4
2018-09-12T08:11:17.209Z,48.7
2018-09-12T08:12:16.569Z,47.6
2018-09-12T08:13:16.910Z,48.4
2018-09-12T08:14:17.194Z,48.5
2018-09-12T08:15:16.464Z,47.8
2018-09-12T08:16:16.733Z,47.2
2018-09-12T08:17:16.998Z,46.3
2018-09-12T08:18:16.265Z,45.9
2018-09-12T08:19:16.546Z,45.9
2018-09-12T08:20:16.831Z,46.9
2018-09-12T08:21:16.859Z,46.4
2018-09-12T08:22:17.203Z,44.8
2018-09-12T08:23:16.523Z,44.9
2018-09-12T08:24:16.794Z,44.6
2018-09-12T08:25:17.066Z,44.3
2018-09-12T08:26:16.512Z,44.2
2018-09-12T08:27:16.815Z,45.0
2018-09-12T08:28:17.084Z,44.0
2018-09-12T08:29:16.354Z,43.3
2018-09-12T08:30:16.633Z,43.5
2018-09-12T08:31:16.674Z,44.0
2018-09-12T08:32:16.942Z,44.5
2018-09-12T08:33:17.333Z,44.3
2018-09-12T08:34:16.613Z,43.2
2018-09-12T08:35:16.892Z,43.1
2018-09-12T08:36:17.218Z,41.5
2018-09-12T08:37:16.489Z,40.6
2018-09-12T08:38:16.776Z,41.2
2018-09-12T08:39:17.042Z,41.5
2018-09-12T08:40:16.332Z,41.5
2018-09-12T08:41:16.360Z,42.6
2018-09-12T08:42:16.833Z,42.5
2018-09-12T08:43:17.173Z,41.1
2018-09-12T08:44:16.447Z,43.0
2018-09-12T08:45:16.714Z,43.0
2018-09-12T08:46:16.989Z,43.5
2018-09-12T08:47:17.285Z,43.2
2018-09-12T08:48:16.568Z,44.2
2018-09-12T08:49:16.838Z,43.5
2018-09-12T08:50:17.117Z,43.8
2018-09-12T08:51:17.166Z,44.0
2018-09-12T08:52:16.456Z,42.3
2018-09-12T08:53:16.785Z,41.5
2018-09-12T08:54:17.056Z,40.6
2018-09-12T08:55:16.324Z,39.9
2018-09-12T08:56:16.608Z,41.0
2018-09-12T08:57:16.881Z,42.5
2018-09-12T08:58:17.153Z,42.9
2018-09-12T08:59:16.414Z,41.8
2018-09-12T09:00:16.810Z,41.2
2018-09-12T09:01:16.829Z,40.8
2018-09-12T09:02:17.109Z,40.1
2018-09-12T09:03:16.386Z,39.2
2018-09-12T09:04:16.661Z,40.1
2018-09-12T09:05:16.939Z,40.5
2018-09-12T09:06:17.203Z,41.6
2018-09-12T09:07:16.474Z,41.1
2018-09-12T09:08:16.750Z,40.1
2018-09-12T09:09:17.011Z,39.3
2018-09-12T09:10:16.289Z,38.8
2018-09-12T09:11:16.354Z,38.7
2018-09-12T09:12:16.633Z,39.3
2018-09-12T09:13:16.912Z,41.5
2018-09-12T09:14:17.188Z,41.5
2018-09-12T09:15:16.460Z,41.7
2018-09-12T09:16:16.732Z,41.6
2018-09-12T09:17:17.130Z,40.1
2018-09-12T09:18:16.455Z,39.7
2018-09-12T09:19:16.732Z,39.2
2018-09-12T09:20:17.027Z,39.6
2018-09-12T09:21:17.066Z,39.4
2018-09-12T09:22:16.342Z,40.6
2018-09-12T09:23:16.607Z,40.8
2018-09-12T09:24:16.889Z,40.4
2018-09-12T09:25:17.156Z,38.3
2018-09-12T09:26:16.420Z,38.0
2018-09-12T09:27:16.694Z,38.7
2018-09-12T09:28:16.953Z,39.4
2018-09-12T09:29:17.289Z,39.0
2018-09-12T09:30:16.584Z,37.9
2018-09-12T09:31:16.604Z,37.5
2018-09-12T09:32:16.867Z,36.6
2018-09-12T09:33:17.154Z,36.3
2018-09-12T09:34:16.436Z,36.8
2018-09-12T09:35:16.965Z,36.1
2018-09-12T09:36:16.338Z,36.1
2018-09-12T09:37:16.607Z,37.7
2018-09-12T09:38:16.868Z,37.5
2018-09-12T09:39:17.142Z,37.4
2018-09-12T09:40:16.416Z,38.4
2018-09-12T09:41:16.469Z,38.3
2018-09-12T09:42:16.748Z,37.8
2018-09-12T09:43:17.016Z,37.2
2018-09-12T09:44:16.299Z,37.7
2018-09-12T09:45:16.567Z,35.9
2018-09-12T09:46:16.830Z,35.8
2018-09-12T09:47:17.095Z,34.1
2018-09-12T09:48:16.774Z,34.1
2018-09-12T09:49:17.062Z,35.3
2018-09-12T09:50:16.358Z,36.4
2018-09-12T09:51:16.424Z,36.4
2018-09-12T09:52:16.701Z,36.4
2018-09-12T09:53:16.970Z,36.5
2018-09-12T09:54:17.241Z,36.5
2018-09-12T09:55:16.520Z,36.5
2018-09-12T09:56:16.791Z,37.7
2018-09-12T09:57:17.062Z,37.7
2018-09-12T09:58:16.330Z,35.1
2018-09-12T09:59:16.599Z,34.2
2018-09-12T10:00:16.959Z,33.8
2018-09-12T10:01:16.920Z,34.2
2018-09-12T10:02:17.195Z,34.4
2018-09-12T10:03:16.465Z,35.5
2018-09-12T10:04:16.732Z,37.0
2018-09-12T10:05:16.999Z,37.9
2018-09-12T10:06:16.271Z,37.0
2018-09-12T10:07:16.538Z,35.6
2018-09-12T10:08:16.814Z,35.8
2018-09-12T10:09:17.108Z,35.7
2018-09-12T10:10:16.394Z,35.2
2018-09-12T10:11:16.433Z,33.3
2018-09-12T10:12:16.705Z,33.8
2018-09-12T10:13:16.984Z,33.7
2018-09-12T10:14:17.261Z,34.4
2018-09-12T10:15:16.552Z,34.1
2018-09-12T10:16:16.829Z,34.6
2018-09-12T10:17:17.104Z,34.4
2018-09-12T10:18:16.372Z,34.1
2018-09-12T10:19:16.639Z,33.9
2018-09-12T10:20:16.915Z,34.0
2018-09-12T10:21:16.963Z,33.5
2018-09-12T10:22:17.233Z,33.5
2018-09-12T10:23:16.509Z,33.2
2018-09-12T10:24:16.881Z,33.0
2018-09-12T10:25:17.212Z,33.2
2018-09-12T10:26:16.479Z,34.2
2018-09-12T10:27:16.751Z,33.5
2018-09-12T10:28:17.025Z,33.4
2018-09-12T10:29:16.308Z,33.8
2018-09-12T10:30:16.582Z,33.8
2018-09-12T10:31:16.656Z,34.4
2018-09-12T10:32:16.925Z,35.4
2018-09-12T10:33:17.199Z,35.5
2018-09-12T10:34:16.472Z,34.5
2018-09-12T10:35:16.745Z,32.5
2018-09-12T10:36:17.015Z,32.8
2018-09-12T10:37:16.302Z,32.5
2018-09-12T10:38:16.577Z,32.9
2018-09-12T10:39:16.850Z,33.5
2018-09-12T10:40:17.129Z,34.1
2018-09-12T10:41:17.172Z,34.5
2018-09-12T10:42:16.442Z,33.5
2018-09-12T10:43:16.709Z,32.4
2018-09-12T10:44:16.973Z,32.5
2018-09-12T10:45:17.244Z,31.9
2018-09-12T10:46:16.513Z,31.5
2018-09-12T10:47:16.786Z,32.3
2018-09-12T10:48:17.072Z,31.7
2018-09-12T10:49:16.352Z,31.8
2018-09-12T10:50:16.637Z,31.9
2018-09-12T10:51:16.685Z,31.1
2018-09-12T10:52:16.952Z,29.4
2018-09-12T10:53:17.232Z,28.9
2018-09-12T10:54:16.498Z,30.4
2018-09-12T10:55:16.777Z,31.4
2018-09-12T10:56:17.045Z,30.5
2018-09-12T10:57:16.309Z,29.9
2018-09-12T10:58:16.576Z,31.3
2018-09-12T10:59:16.851Z,30.6
2018-09-12T11:00:17.128Z,30.4
2018-09-12T11:01:17.188Z,31.0
2018-09-12T11:02:16.467Z,31.4
2018-09-12T11:03:16.727Z,30.9
2018-09-12T11:04:17.097Z,31.1
2018-09-12T11:05:16.380Z,31.5
2018-09-12T11:06:16.661Z,32.1
2018-09-12T11:07:16.919Z,29.9
2018-09-12T11:08:17.187Z,30.0
2018-09-12T11:09:16.462Z,30.6
2018-09-12T11:10:16.760Z,32.1
2018-09-12T11:11:16.785Z,32.0
2018-09-12T11:12:17.068Z,30.9
2018-09-12T11:13:16.339Z,29.9
2018-09-12T11:14:16.612Z,30.4
2018-09-12T11:15:17.000Z,30.1
2018-09-12T11:16:16.330Z,29.7
2018-09-12T11:17:16.600Z,29.6
2018-09-12T11:18:16.876Z,29.1
2018-09-12T11:19:17.324Z,29.2
2018-09-12T11:20:16.607Z,29.1
2018-09-12T11:21:16.644Z,29.1
2018-09-12T11:22:16.915Z,29.8
2018-09-12T11:23:17.172Z,29.7
2018-09-12T11:24:16.442Z,29.6
2018-09-12T11:25:16.730Z,31.2
2018-09-12T11:26:17.007Z,30.4
2018-09-12T11:27:16.271Z,30.9
2018-09-12T11:28:16.558Z,30.1
2018-09-12T11:29:16.830Z,30.2
2018-09-12T11:30:17.127Z,29.8
2018-09-12T11:31:17.137Z,30.9
2018-09-12T11:32:16.412Z,31.1
2018-09-12T11:33:16.693Z,31.1
2018-09-12T11:34:17.115Z,30.5
2018-09-12T11:35:16.443Z,31.3
2018-09-12T11:36:16.711Z,31.4
2018-09-12T11:37:16.991Z,31.0
2018-09-12T11:38:16.265Z,31.1
2018-09-12T11:39:16.531Z,31.3
2018-09-12T11:40:17.007Z,31.4
2018-09-12T11:41:16.860Z,32.5
2018-09-12T11:42:17.134Z,31.9
2018-09-12T11:43:16.404Z,32.6
2018-09-12T11:44:16.677Z,30.9
2018-09-12T11:45:16.949Z,32.3
2018-09-12T11:46:17.210Z,33.2
2018-09-12T11:47:16.471Z,32.6
2018-09-12T11:48:16.741Z,33.1
2018-09-12T11:49:17.197Z,33.5
2018-09-12T11:50:16.477Z,33.2
2018-09-12T11:51:16.532Z,32.9
2018-09-12T11:52:16.808Z,33.4
2018-09-12T11:53:17.071Z,32.7
2018-09-12T11:54:16.490Z,33.0
2018-09-12T11:55:16.766Z,32.8
2018-09-12T11:56:17.043Z,33.5
2018-09-12T11:57:16.303Z,33.8
2018-09-12T11:58:16.585Z,32.8
2018-09-12T11:59:16.856Z,33.2
2018-09-12T12:00:17.122Z,33.2
2018-09-12T12:01:17.192Z,32.4
2018-09-12T12:02:16.578Z,32.4
2018-09-12T12:03:16.900Z,32.9
2018-09-12T12:04:17.188Z,33.0
2018-09-12T12:05:16.466Z,33.0
2018-09-12T12:06:16.729Z,33.2
2018-09-12T12:07:17.003Z,32.6
2018-09-12T12:08:16.265Z,33.2
2018-09-12T12:09:16.543Z,33.5
2018-09-12T12:10:16.849Z,34.0
2018-09-12T12:11:16.878Z,34.0
2018-09-12T12:12:17.152Z,32.9
2018-09-12T12:13:16.427Z,33.1
2018-09-12T12:14:16.705Z,33.4
2018-09-12T12:15:17.092Z,33.7
2018-09-12T12:16:16.421Z,33.0
2018-09-12T12:17:16.687Z,32.8
2018-09-12T12:18:16.969Z,32.4
2018-09-12T12:19:17.243Z,32.9
2018-09-12T12:20:16.515Z,33.5
2018-09-12T12:21:16.573Z,33.2
2018-09-12T12:22:16.831Z,33.6
2018-09-12T12:23:17.384Z,33.6
2018-09-12T12:24:16.681Z,33.5
2018-09-12T12:25:16.949Z,33.8
2018-09-12T12:26:17.224Z,33.2
2018-09-12T12:27:16.495Z,34.1
2018-09-12T12:28:16.763Z,33.8
2018-09-12T12:29:17.040Z,33.4
2018-09-12T12:30:16.319Z,33.0
2018-09-12T12:31:16.368Z,32.5
2018-09-12T12:32:16.643Z,32.7
2018-09-12T12:33:16.909Z,32.5
2018-09-12T12:34:17.180Z,32.5
2018-09-12T12:35:16.508Z,32.0
2018-09-12T12:36:16.785Z,32.4
2018-09-12T12:37:17.060Z,33.2
2018-09-12T12:38:16.345Z,32.9
2018-09-12T12:39:16.616Z,33.0
2018-09-12T12:40:16.900Z,33.1
2018-09-12T12:41:16.999Z,33.4
2018-09-12T12:42:16.340Z,33.0
2018-09-12T12:43:16.614Z,32.5
2018-09-12T12:44:16.878Z,33.0
2018-09-12T12:45:17.417Z,32.3
2018-09-12T12:46:16.689Z,32.6
2018-09-12T12:47:16.970Z,32.8
2018-09-12T12:48:16.288Z,31.9
2018-09-12T12:49:16.559Z,31.9
2018-09-12T12:50:16.853Z,32.5
2018-09-12T12:51:16.870Z,32.4
2018-09-12T12:52:17.157Z,32.6
2018-09-12T12:53:16.431Z,32.4
2018-09-12T12:54:16.708Z,32.5
2018-09-12T12:55:16.974Z,32.1
2018-09-12T12:56:17.237Z,32.2
2018-09-12T12:57:16.522Z,31.8
2018-09-12T12:58:16.791Z,31.7
2018-09-12T12:59:17.045Z,32.0
2018-09-12T13:00:16.334Z,31.8
2018-09-12T13:01:16.367Z,31.8
2018-09-12T13:02:16.641Z,32.1
2018-09-12T13:03:16.905Z,32.2
2018-09-12T13:04:17.188Z,32.1
2018-09-12T13:05:16.474Z,32.6
2018-09-12T13:06:16.747Z,32.0
2018-09-12T13:07:17.019Z,32.8
2018-09-12T13:08:16.286Z,32.6
2018-09-12T13:09:16.550Z,32.5
2018-09-12T13:10:16.854Z,31.9
2018-09-12T13:11:16.875Z,32.5
2018-09-12T13:12:17.141Z,32.2
2018-09-12T13:13:16.414Z,31.6
2018-09-12T13:14:16.690Z,31.4
2018-09-12T13:15:16.949Z,31.0
2018-09-12T13:16:17.225Z,31.4
2018-09-12T13:17:16.505Z,31.5
2018-09-12T13:18:16.785Z,31.7